createdAt,value
2023-10-06T00:01:04.785Z,96278.80
2023-10-06T00:03:31.532Z,96275.20
2023-10-06T00:05:58.323Z,96275.00
2023-10-06T00:08:34.176Z,96276.40
2023-10-06T00:11:16.792Z,96280.40
2023-10-06T00:13:53.541Z,96277.40
2023-10-06T00:16:20.364Z,96278.80
2023-10-06T00:18:48.213Z,96276.00
2023-10-06T00:21:22.718Z,96272.60
2023-10-06T00:23:50.679Z,96272.40
2023-10-06T00:26:18.072Z,96276.00
2023-10-06T00:28:48.306Z,96269.00
2023-10-06T00:31:15.327Z,96270.00
2023-10-06T00:33:44.291Z,96269.20
2023-10-06T00:36:20.369Z,96273.20
2023-10-06T00:38:52.566Z,96270.00
2023-10-06T00:41:21.614Z,96267.80
2023-10-06T00:43:50.599Z,96273.00
2023-10-06T00:46:22.017Z,96272.60
2023-10-06T00:48:57.739Z,96274.80
2023-10-06T00:51:27.449Z,96270.60
2023-10-06T00:53:59.226Z,96269.80
2023-10-06T00:56:30.329Z,96268.80
2023-10-06T00:58:57.615Z,96265.60
2023-10-06T01:01:24.726Z,96263.60
2023-10-06T01:04:16.423Z,96265.00
2023-10-06T01:06:44.238Z,96266.00
2023-10-06T01:09:12.350Z,96263.40
2023-10-06T01:11:52.095Z,96262.20
2023-10-06T01:14:28.687Z,96264.40
2023-10-06T01:17:11.400Z,96260.20
2023-10-06T01:19:38.394Z,96258.60
2023-10-06T01:22:23.440Z,96257.80
2023-10-06T01:24:50.904Z,96260.20
2023-10-06T01:27:17.915Z,96261.80
2023-10-06T01:29:46.516Z,96265.60
2023-10-06T01:32:17.015Z,96265.20
2023-10-06T01:34:45.772Z,96264.80
2023-10-06T01:37:12.748Z,96266.20
2023-10-06T01:39:41.036Z,96264.20
2023-10-06T01:42:09.620Z,96262.60
2023-10-06T01:44:36.427Z,96257.40
2023-10-06T01:47:06.142Z,96256.20
2023-10-06T01:49:37.366Z,96255.60
2023-10-06T01:52:10.233Z,96256.60
2023-10-06T01:54:37.627Z,96255.80
2023-10-06T01:57:08.291Z,96256.40
2023-10-06T01:59:35.705Z,96251.40
2023-10-06T02:02:03.526Z,96250.60
2023-10-06T02:04:41.213Z,96251.00
2023-10-06T02:07:11.865Z,96250.20
2023-10-06T02:09:40.398Z,96246.80
2023-10-06T02:12:07.882Z,96247.60
2023-10-06T02:14:34.656Z,96243.80
2023-10-06T02:17:06.697Z,96241.40
2023-10-06T02:19:35.606Z,96236.40
2023-10-06T02:22:02.628Z,96235.20
2023-10-06T02:24:29.333Z,96238.20
2023-10-06T02:26:59.571Z,96237.60
2023-10-06T02:29:28.066Z,96239.20
2023-10-06T02:32:02.467Z,96239.00
2023-10-06T02:34:31.578Z,96242.60
2023-10-06T02:36:58.444Z,96240.80
2023-10-06T02:39:29.809Z,96243.40
2023-10-06T02:41:59.130Z,96245.60
2023-10-06T02:44:26.531Z,96246.00
2023-10-06T02:46:54.319Z,96245.60
2023-10-06T02:49:33.181Z,96241.40
2023-10-06T02:52:01.678Z,96239.00
2023-10-06T02:54:31.361Z,96237.00
2023-10-06T02:56:58.065Z,96238.80
2023-10-06T02:59:26.520Z,96236.60
2023-10-06T03:01:58.862Z,96231.40
2023-10-06T03:04:27.775Z,96231.00
2023-10-06T03:06:58.789Z,96237.20
2023-10-06T03:09:48.159Z,96238.00
2023-10-06T03:12:27.630Z,96235.80
2023-10-06T03:14:55.669Z,96235.80
2023-10-06T03:17:22.623Z,96226.00
2023-10-06T03:20:09.645Z,96222.00
2023-10-06T03:22:40.076Z,96223.80
2023-10-06T03:25:18.286Z,96222.60
2023-10-06T03:27:53.836Z,96227.80
2023-10-06T03:30:28.226Z,96225.00
2023-10-06T03:32:55.844Z,96228.40
2023-10-06T03:35:26.069Z,96227.00
2023-10-06T03:37:55.134Z,96230.80
2023-10-06T03:40:36.856Z,96230.00
2023-10-06T03:43:07.138Z,96229.80
2023-10-06T03:45:36.064Z,96231.60
2023-10-06T03:48:15.422Z,96232.60
2023-10-06T03:50:45.665Z,96233.60
2023-10-06T03:53:16.174Z,96237.20
2023-10-06T03:55:47.604Z,96234.80
2023-10-06T03:58:18.076Z,96237.00
2023-10-06T04:00:49.135Z,96237.00
2023-10-06T04:03:19.115Z,96236.00
2023-10-06T04:05:50.554Z,96235.60
2023-10-06T04:08:22.919Z,96235.00
2023-10-06T04:10:58.663Z,96238.00
2023-10-06T04:13:26.465Z,96235.40
2023-10-06T04:15:54.443Z,96230.00
2023-10-06T04:18:25.649Z,96227.20
2023-10-06T04:20:54.778Z,96229.80
2023-10-06T04:23:25.100Z,96232.20
2023-10-06T04:25:56.577Z,96230.60
2023-10-06T04:28:26.510Z,96233.80
2023-10-06T04:30:55.425Z,96237.00
2023-10-06T04:33:24.255Z,96234.60
2023-10-06T04:35:57.009Z,96236.00
2023-10-06T04:38:24.504Z,96236.20
2023-10-06T04:40:52.832Z,96228.80
2023-10-06T04:43:19.940Z,96222.40
2023-10-06T04:45:49.128Z,96222.20
2023-10-06T04:48:22.360Z,96225.00
2023-10-06T04:50:51.948Z,96226.80
2023-10-06T04:53:19.345Z,96223.80
2023-10-06T04:55:46.040Z,96224.60
2023-10-06T04:58:19.172Z,96220.20
2023-10-06T05:00:54.648Z,96218.60
2023-10-06T05:03:21.606Z,96215.20
2023-10-06T05:05:51.767Z,96207.60
2023-10-06T05:08:18.914Z,96201.80
2023-10-06T05:10:45.796Z,96198.60
2023-10-06T05:13:12.692Z,96195.40
2023-10-06T05:15:43.244Z,96198.40
2023-10-06T05:18:17.254Z,96199.00
2023-10-06T05:20:44.873Z,96203.00
2023-10-06T05:23:16.012Z,96205.60
2023-10-06T05:25:48.602Z,96211.60
2023-10-06T05:28:18.457Z,96214.00
2023-10-06T05:30:46.429Z,96212.40
2023-10-06T05:33:15.578Z,96209.00
2023-10-06T05:35:43.932Z,96204.60
2023-10-06T05:38:15.219Z,96206.60
2023-10-06T05:40:47.717Z,96211.60
2023-10-06T05:43:17.384Z,96210.20
2023-10-06T05:45:53.852Z,96213.00
2023-10-06T05:48:23.335Z,96211.20
2023-10-06T05:50:53.392Z,96215.80
2023-10-06T05:53:30.881Z,96217.60
2023-10-06T05:55:59.604Z,96224.00
2023-10-06T05:58:26.548Z,96223.80
2023-10-06T06:01:07.393Z,96231.60
2023-10-06T06:03:34.752Z,96227.20
2023-10-06T06:06:10.073Z,96228.60
2023-10-06T06:08:40.457Z,96232.80
2023-10-06T06:11:07.927Z,96232.40
2023-10-06T06:13:37.517Z,96231.20
2023-10-06T06:16:06.662Z,96231.40
2023-10-06T06:18:35.069Z,96233.20
2023-10-06T06:21:04.634Z,96235.20
2023-10-06T06:23:36.347Z,96240.80
2023-10-06T06:26:03.573Z,96242.20
2023-10-06T06:28:30.386Z,96245.60
2023-10-06T06:30:57.450Z,96245.00
2023-10-06T06:33:24.069Z,96246.80
2023-10-06T06:35:50.756Z,96248.20
2023-10-06T06:38:20.209Z,96247.60
2023-10-06T06:40:47.499Z,96249.00
2023-10-06T06:43:14.210Z,96247.60
2023-10-06T06:45:41.424Z,96247.80
2023-10-06T06:48:14.649Z,96252.00
2023-10-06T06:50:46.165Z,96255.60
2023-10-06T06:53:13.486Z,96254.00
2023-10-06T06:55:43.067Z,96257.00
2023-10-06T06:58:12.634Z,96269.60
2023-10-06T07:00:43.258Z,96268.80
2023-10-06T07:03:12.169Z,96275.00
2023-10-06T07:05:40.902Z,96276.60
2023-10-06T07:08:08.457Z,96273.20
2023-10-06T07:10:40.335Z,96270.20
2023-10-06T07:13:08.024Z,96266.40
2023-10-06T07:15:34.970Z,96264.40
2023-10-06T07:18:02.147Z,96264.20
2023-10-06T07:20:31.640Z,96267.00
2023-10-06T07:23:03.435Z,96263.80
2023-10-06T07:25:30.815Z,96264.60
2023-10-06T07:27:59.677Z,96266.80
2023-10-06T07:30:35.671Z,96269.40
2023-10-06T07:33:09.592Z,96271.20
2023-10-06T07:35:48.848Z,96275.60
2023-10-06T07:38:15.965Z,96275.40
2023-10-06T07:40:45.688Z,96274.20
2023-10-06T07:43:13.781Z,96274.40
2023-10-06T07:45:40.482Z,96275.80
2023-10-06T07:48:07.382Z,96273.80
2023-10-06T07:50:37.426Z,96280.40
2023-10-06T07:53:04.478Z,96275.60
2023-10-06T07:55:33.456Z,96275.00
2023-10-06T07:58:01.738Z,96269.40
2023-10-06T08:00:29.774Z,96267.80
2023-10-06T08:02:58.831Z,96272.40
2023-10-06T08:05:27.787Z,96270.00
2023-10-06T08:08:00.874Z,96260.80
2023-10-06T08:10:31.824Z,96264.20
2023-10-06T08:13:02.746Z,96256.00
2023-10-06T08:15:30.241Z,96255.40
2023-10-06T08:17:57.591Z,96255.20
2023-10-06T08:20:26.866Z,96256.80
2023-10-06T08:22:55.460Z,96258.80
2023-10-06T08:25:25.220Z,96252.20
2023-10-06T08:27:52.842Z,96250.80
2023-10-06T08:30:21.316Z,96253.00
2023-10-06T08:32:51.675Z,96248.80
2023-10-06T08:35:18.908Z,96246.20
2023-10-06T08:37:48.659Z,96240.80
2023-10-06T08:40:18.058Z,96237.40
2023-10-06T08:42:52.702Z,96225.40
2023-10-06T08:45:28.789Z,96219.60
2023-10-06T08:48:04.871Z,96211.20
2023-10-06T08:50:33.716Z,96212.80
2023-10-06T08:53:03.141Z,96206.80
2023-10-06T08:55:30.225Z,96206.20
2023-10-06T08:58:03.192Z,96201.00
2023-10-06T09:00:35.493Z,96200.20
2023-10-06T09:03:09.367Z,96193.20
2023-10-06T09:05:43.803Z,96193.40
2023-10-06T09:08:13.472Z,96193.80
2023-10-06T09:10:50.441Z,96191.60
2023-10-06T09:13:20.218Z,96189.80
2023-10-06T09:16:09.955Z,96184.20
2023-10-06T09:18:40.283Z,96185.20
2023-10-06T09:21:13.469Z,96180.60
2023-10-06T09:23:41.965Z,96182.20
2023-10-06T09:26:13.343Z,96177.20
2023-10-06T09:28:56.725Z,96178.00
2023-10-06T09:31:45.676Z,96177.60
2023-10-06T09:34:23.830Z,96180.00
2023-10-06T09:36:51.198Z,96181.40
2023-10-06T09:39:33.984Z,96179.60
2023-10-06T09:42:02.613Z,96180.40
2023-10-06T09:44:32.057Z,96183.80
2023-10-06T09:47:02.748Z,96188.60
2023-10-06T09:49:30.786Z,96193.40
2023-10-06T09:52:02.935Z,96195.20
2023-10-06T09:54:31.855Z,96196.40
2023-10-06T09:57:01.183Z,96197.00
2023-10-06T09:59:28.954Z,96197.40
2023-10-06T10:01:58.994Z,96190.60
2023-10-06T10:04:30.938Z,96188.00
2023-10-06T10:06:57.797Z,96191.60
2023-10-06T10:09:26.313Z,96188.40
2023-10-06T10:12:35.435Z,96183.20
2023-10-06T10:15:23.019Z,96182.20
2023-10-06T10:18:34.622Z,96188.80
2023-10-06T10:21:06.227Z,96185.80
2023-10-06T10:23:32.996Z,96186.00
2023-10-06T10:26:24.425Z,96183.40
2023-10-06T10:29:26.296Z,96192.20
2023-10-06T10:32:01.648Z,96195.80
2023-10-06T10:34:35.440Z,96198.20
2023-10-06T10:37:08.716Z,96193.60
2023-10-06T10:39:51.558Z,96192.20
2023-10-06T10:42:23.084Z,96188.80
2023-10-06T10:44:50.750Z,96184.40
2023-10-06T10:47:18.300Z,96180.80
2023-10-06T10:49:49.384Z,96174.60
2023-10-06T10:52:17.050Z,96168.40
2023-10-06T10:54:44.352Z,96167.40
2023-10-06T10:57:15.566Z,96159.20
2023-10-06T11:00:02.102Z,96156.00
2023-10-06T11:02:37.738Z,96162.00
2023-10-06T11:05:05.690Z,96159.20
2023-10-06T11:07:32.693Z,96154.40
2023-10-06T11:09:59.325Z,96158.20
2023-10-06T11:12:29.063Z,96156.40
2023-10-06T11:15:04.724Z,96153.60
2023-10-06T11:17:33.397Z,96155.80
2023-10-06T11:20:17.580Z,96149.80
2023-10-06T11:23:03.491Z,96144.80
2023-10-06T11:25:36.597Z,96140.00
2023-10-06T11:28:10.397Z,96141.60
2023-10-06T11:30:40.077Z,96130.60
2023-10-06T11:33:11.324Z,96132.40
2023-10-06T11:35:42.556Z,96125.00
2023-10-06T11:38:14.548Z,96117.80
2023-10-06T11:40:42.565Z,96116.20
2023-10-06T11:43:15.093Z,96111.80
2023-10-06T11:45:43.655Z,96107.20
2023-10-06T11:48:31.165Z,96108.00
2023-10-06T11:51:09.389Z,96100.00
2023-10-06T11:53:39.086Z,96102.80
2023-10-06T11:56:13.607Z,96106.40
2023-10-06T11:58:42.570Z,96098.80
2023-10-06T12:01:47.016Z,96099.40
2023-10-06T12:04:33.069Z,96090.80
2023-10-06T12:07:00.048Z,96090.60
2023-10-06T12:09:31.881Z,96082.60
2023-10-06T12:12:00.764Z,96085.40
2023-10-06T12:14:27.801Z,96084.20
2023-10-06T12:16:58.122Z,96083.20
2023-10-06T12:19:25.622Z,96078.20
2023-10-06T12:21:52.554Z,96076.00
2023-10-06T12:24:19.542Z,96077.40
2023-10-06T12:26:47.964Z,96073.40
2023-10-06T12:29:18.767Z,96068.00
2023-10-06T12:31:47.241Z,96068.20
2023-10-06T12:34:17.030Z,96063.20
2023-10-06T12:36:48.523Z,96057.80
2023-10-06T12:39:46.826Z,96057.60
2023-10-06T12:42:17.872Z,96056.40
2023-10-06T12:44:44.931Z,96054.00
2023-10-06T12:47:13.402Z,96050.80
2023-10-06T12:49:45.201Z,96050.80
2023-10-06T12:52:12.070Z,96049.40
2023-10-06T12:54:39.382Z,96049.60
2023-10-06T12:57:06.220Z,96049.60
2023-10-06T12:59:33.917Z,96044.80
2023-10-06T13:02:05.151Z,96047.60
2023-10-06T13:04:32.135Z,96046.40
2023-10-06T13:07:03.197Z,96046.60
2023-10-06T13:09:29.837Z,96046.00
2023-10-06T13:11:56.486Z,96046.00
2023-10-06T13:14:23.215Z,96046.60
2023-10-06T13:16:49.954Z,96050.80
2023-10-06T13:19:16.767Z,96043.20
2023-10-06T13:21:46.770Z,96036.40
2023-10-06T13:24:14.377Z,96026.80
2023-10-06T13:26:44.261Z,96028.80
2023-10-06T13:29:12.040Z,96036.20
2023-10-06T13:31:38.668Z,96035.20
2023-10-06T13:34:05.628Z,96031.00
2023-10-06T13:36:32.763Z,96024.20
2023-10-06T13:38:59.702Z,96023.40
2023-10-06T13:41:27.773Z,96022.60
2023-10-06T13:43:55.351Z,96022.60
2023-10-06T13:46:22.248Z,96013.60
2023-10-06T13:48:48.917Z,96016.40
2023-10-06T13:51:16.452Z,96012.40
2023-10-06T13:53:44.456Z,96007.00
2023-10-06T13:56:12.166Z,96004.00
2023-10-06T13:58:39.036Z,96003.80
2023-10-06T14:01:05.813Z,96002.20
2023-10-06T14:03:32.650Z,96006.00
2023-10-06T14:06:01.603Z,96001.60
2023-10-06T14:08:30.176Z,96004.60
2023-10-06T14:11:00.429Z,96012.40
2023-10-06T14:13:29.062Z,96009.60
2023-10-06T14:15:56.373Z,96003.40
2023-10-06T14:18:33.319Z,96008.40
2023-10-06T14:21:04.535Z,96009.00
2023-10-06T14:23:32.912Z,96008.00
2023-10-06T14:26:02.429Z,96005.00
2023-10-06T14:28:29.839Z,96012.60
2023-10-06T14:31:06.977Z,96015.60
2023-10-06T14:33:54.256Z,96010.20
2023-10-06T14:36:20.858Z,96009.80
2023-10-06T14:38:47.939Z,96014.00
2023-10-06T14:41:35.827Z,96012.00
2023-10-06T14:44:22.666Z,96013.00
2023-10-06T14:46:52.577Z,96021.80
2023-10-06T14:49:27.307Z,96009.20
2023-10-06T14:51:57.605Z,96003.20
2023-10-06T14:54:32.899Z,96003.40
2023-10-06T14:57:01.930Z,96008.20
2023-10-06T14:59:32.696Z,96007.20
2023-10-06T15:02:07.606Z,96006.20
2023-10-06T15:04:35.797Z,95996.40
2023-10-06T15:07:03.070Z,95997.60
2023-10-06T15:09:33.401Z,95996.00
2023-10-06T15:12:03.503Z,95999.00
2023-10-06T15:14:30.408Z,95995.20
2023-10-06T15:17:01.117Z,95994.00
2023-10-06T15:19:28.102Z,95992.80
2023-10-06T15:21:57.557Z,95995.80
2023-10-06T15:24:24.353Z,95996.00
2023-10-06T15:26:51.641Z,96001.40
2023-10-06T15:29:22.444Z,95997.20
2023-10-06T15:31:50.729Z,95991.60
2023-10-06T15:34:18.807Z,95994.80
2023-10-06T15:36:45.832Z,95994.40
2023-10-06T15:39:23.895Z,95989.00
2023-10-06T15:41:51.832Z,95985.20
2023-10-06T15:44:20.020Z,95980.60
2023-10-06T15:46:47.610Z,95982.40
2023-10-06T15:49:20.288Z,95983.40
2023-10-06T15:51:48.376Z,95977.00
2023-10-06T15:54:16.961Z,95977.00
2023-10-06T15:56:44.864Z,95975.20
2023-10-06T15:59:16.470Z,95976.00
2023-10-06T16:01:46.015Z,95977.40
2023-10-06T16:04:15.533Z,95978.20
2023-10-06T16:06:44.328Z,95978.20
2023-10-06T16:09:16.485Z,95977.20
2023-10-06T16:11:43.632Z,95978.80
2023-10-06T16:14:10.575Z,95975.40
2023-10-06T16:16:37.366Z,95978.40
2023-10-06T16:19:05.416Z,95979.60
2023-10-06T16:21:33.943Z,95984.40
2023-10-06T16:24:01.550Z,95984.80
2023-10-06T16:26:31.477Z,95986.40
2023-10-06T16:28:59.759Z,95986.20
2023-10-06T16:31:28.170Z,95989.40
2023-10-06T16:33:58.828Z,95991.00
2023-10-06T16:36:25.750Z,95989.00
2023-10-06T16:38:52.824Z,95985.80
2023-10-06T16:41:23.426Z,95987.80
2023-10-06T16:43:56.984Z,95986.20
2023-10-06T16:46:24.358Z,95985.40
2023-10-06T16:48:51.301Z,95987.40
2023-10-06T16:51:19.097Z,95991.00
2023-10-06T16:53:49.569Z,95996.80
2023-10-06T16:56:19.628Z,95998.00
2023-10-06T16:58:47.580Z,96001.60
2023-10-06T17:01:14.606Z,96003.80
2023-10-06T17:03:41.459Z,96000.00
2023-10-06T17:06:12.401Z,96004.00
2023-10-06T17:08:41.187Z,96002.60
2023-10-06T17:11:18.140Z,96005.80
2023-10-06T17:13:46.986Z,96008.00
2023-10-06T17:16:15.425Z,96008.40
2023-10-06T17:18:43.011Z,96010.60
2023-10-06T17:21:17.078Z,96014.00
2023-10-06T17:23:44.266Z,96017.20
2023-10-06T17:26:13.929Z,96013.80
2023-10-06T17:28:41.285Z,96015.80
2023-10-06T17:31:16.841Z,96014.00
2023-10-06T17:33:50.690Z,96015.80
2023-10-06T17:36:19.742Z,96016.00
2023-10-06T17:38:46.523Z,96012.40
2023-10-06T17:41:17.775Z,96012.80
2023-10-06T17:43:48.232Z,96014.80
2023-10-06T17:46:16.884Z,96017.60
2023-10-06T17:48:47.162Z,96019.20
2023-10-06T17:51:16.294Z,96017.40
2023-10-06T17:53:47.824Z,96012.60
2023-10-06T17:56:19.229Z,96013.20
2023-10-06T17:58:47.129Z,96012.60
2023-10-06T18:01:14.980Z,96015.20
2023-10-06T18:03:43.194Z,96018.20
2023-10-06T18:06:11.118Z,96025.40
2023-10-06T18:08:37.785Z,96021.20
2023-10-06T18:11:05.238Z,96020.60
2023-10-06T18:13:32.802Z,96021.00
2023-10-06T18:16:05.831Z,96017.80
2023-10-06T18:18:36.534Z,96020.60
2023-10-06T18:21:07.042Z,96026.60
2023-10-06T18:23:33.842Z,96032.20
2023-10-06T18:26:00.722Z,96026.40
2023-10-06T18:28:27.593Z,96028.00
2023-10-06T18:30:54.458Z,96028.20
2023-10-06T18:33:21.403Z,96029.20
2023-10-06T18:35:48.066Z,96028.20
2023-10-06T18:38:14.788Z,96028.80
2023-10-06T18:40:51.938Z,96028.60
2023-10-06T18:43:18.691Z,96022.20
2023-10-06T18:45:45.543Z,96021.80
2023-10-06T18:48:14.203Z,96020.20
2023-10-06T18:50:40.897Z,96034.40
2023-10-06T18:53:07.649Z,96035.60
2023-10-06T18:55:34.981Z,96035.00
2023-10-06T18:58:02.101Z,96034.80
2023-10-06T19:00:32.395Z,96037.00
2023-10-06T19:02:59.054Z,96038.60
2023-10-06T19:05:26.697Z,96036.80
2023-10-06T19:07:53.607Z,96039.00
2023-10-06T19:10:20.501Z,96038.40
2023-10-06T19:12:49.002Z,96038.20
2023-10-06T19:15:15.696Z,96039.80
2023-10-06T19:17:42.469Z,96041.20
2023-10-06T19:20:10.249Z,96045.80
2023-10-06T19:22:39.076Z,96044.20
2023-10-06T19:25:10.993Z,96040.80
2023-10-06T19:27:39.176Z,96047.80
2023-10-06T19:30:10.963Z,96042.60
2023-10-06T19:32:39.263Z,96043.80
2023-10-06T19:35:10.468Z,96040.20
2023-10-06T19:37:41.187Z,96040.20
2023-10-06T19:40:09.902Z,96035.80
2023-10-06T19:42:38.463Z,96033.60
2023-10-06T19:45:08.749Z,96038.00
2023-10-06T19:47:36.428Z,96043.00
2023-10-06T19:50:12.515Z,96049.40
2023-10-06T19:52:40.909Z,96044.60
2023-10-06T19:55:09.100Z,96044.20
2023-10-06T19:57:37.101Z,96040.60
2023-10-06T20:00:15.746Z,96040.20
2023-10-06T20:02:42.775Z,96038.80
2023-10-06T20:05:11.685Z,96038.40
2023-10-06T20:07:38.337Z,96038.40
2023-10-06T20:10:05.960Z,96038.00
2023-10-06T20:12:33.377Z,96033.80
2023-10-06T20:15:03.578Z,96035.00
2023-10-06T20:17:31.743Z,96037.60
2023-10-06T20:19:59.090Z,96032.80
2023-10-06T20:22:26.729Z,96037.60
2023-10-06T20:24:53.405Z,96034.80
2023-10-06T20:27:20.067Z,96036.20
2023-10-06T20:29:46.740Z,96036.60
2023-10-06T20:32:14.354Z,96039.20
2023-10-06T20:34:41.705Z,96032.40
2023-10-06T20:37:08.512Z,96037.20
2023-10-06T20:39:35.186Z,96041.40
2023-10-06T20:42:02.118Z,96041.20
2023-10-06T20:44:29.442Z,96040.60
2023-10-06T20:46:56.268Z,96044.60
2023-10-06T20:49:25.840Z,96044.80
2023-10-06T20:51:52.661Z,96046.60
2023-10-06T20:54:19.451Z,96044.20
2023-10-06T20:56:46.161Z,96046.40
2023-10-06T20:59:14.550Z,96044.80
2023-10-06T21:01:43.156Z,96044.00
2023-10-06T21:04:10.358Z,96044.00
2023-10-06T21:06:38.697Z,96048.80
2023-10-06T21:09:06.206Z,96050.80
2023-10-06T21:11:38.113Z,96046.80
2023-10-06T21:14:06.039Z,96048.80
2023-10-06T21:16:33.168Z,96054.20
2023-10-06T21:19:00.192Z,96055.60
2023-10-06T21:21:27.033Z,96058.20
2023-10-06T21:23:53.949Z,96060.80
2023-10-06T21:26:24.939Z,96064.20
2023-10-06T21:28:54.386Z,96060.40
2023-10-06T21:31:21.357Z,96064.20
2023-10-06T21:33:48.864Z,96067.20
2023-10-06T21:36:15.610Z,96064.40
2023-10-06T21:38:42.200Z,96068.40
2023-10-06T21:41:09.419Z,96068.80
2023-10-06T21:43:36.238Z,96070.80
2023-10-06T21:46:06.835Z,96069.20
2023-10-06T21:48:34.944Z,96066.00
2023-10-06T21:51:01.756Z,96061.60
2023-10-06T21:53:28.478Z,96063.80
2023-10-06T21:55:55.279Z,96067.80
2023-10-06T21:58:22.080Z,96068.80
2023-10-06T22:00:55.234Z,96067.60
2023-10-06T22:03:22.150Z,96068.40
2023-10-06T22:05:48.946Z,96069.80
2023-10-06T22:08:15.718Z,96070.40
2023-10-06T22:10:44.052Z,96067.80
2023-10-06T22:13:10.746Z,96063.80
2023-10-06T22:15:37.527Z,96067.40
2023-10-06T22:18:06.394Z,96065.00
2023-10-06T22:20:33.135Z,96064.00
2023-10-06T22:23:00.360Z,96061.00
2023-10-06T22:25:30.972Z,96062.80
2023-10-06T22:27:59.124Z,96060.40
2023-10-06T22:30:27.125Z,96059.20
2023-10-06T22:32:54.357Z,96060.80
2023-10-06T22:35:21.491Z,96058.40
2023-10-06T22:37:49.340Z,96054.40
2023-10-06T22:40:19.643Z,96051.00
2023-10-06T22:42:49.886Z,96049.40
2023-10-06T22:45:19.821Z,96050.00
2023-10-06T22:47:51.638Z,96048.60
2023-10-06T22:50:20.603Z,96046.60
2023-10-06T22:52:49.566Z,96046.40
2023-10-06T22:55:20.102Z,96045.60
2023-10-06T22:57:48.915Z,96048.00
2023-10-06T23:00:18.843Z,96050.80
2023-10-06T23:02:46.245Z,96050.20
2023-10-06T23:05:13.543Z,96050.40
2023-10-06T23:07:40.890Z,96046.20
2023-10-06T23:10:09.282Z,96043.40
2023-10-06T23:12:35.889Z,96039.80
2023-10-06T23:15:02.590Z,96039.20
2023-10-06T23:17:29.241Z,96037.80
2023-10-06T23:20:00.089Z,96037.60
2023-10-06T23:22:27.059Z,96035.80
2023-10-06T23:24:53.760Z,96035.60
2023-10-06T23:27:21.922Z,96040.00
2023-10-06T23:29:49.752Z,96035.80
2023-10-06T23:32:17.012Z,96041.00
2023-10-06T23:34:43.809Z,96038.00
2023-10-06T23:37:13.771Z,96038.60
2023-10-06T23:39:41.643Z,96037.20
2023-10-06T23:42:15.844Z,96040.80
2023-10-06T23:44:44.234Z,96043.00
2023-10-06T23:47:11.494Z,96041.00
2023-10-06T23:49:42.902Z,96037.20
2023-10-06T23:52:13.860Z,96035.60
2023-10-06T23:54:48.026Z,96033.20
2023-10-06T23:57:18.246Z,96036.80
2023-10-06T23:59:49.288Z,96035.60
